Accueil
METAR-TAF:

METAR-TAF

Aéroports :

Ubon Ratchathani, Thaïlande

latitude: 15-15N, longitude: 104-52E, altitude: 123 m

Observation

Le bulletin a été fait il y a 42 minutes, à 05:00 UTC
Vent 7 kt de ouest, variant entre ouest/sud-ouest et nord-ouest
Température 32°C
Humidité 67%
Pression 1008 hPa
Visibilité 10 km ou plus
Nuages épars à une hauteur de 3000 ft

METAR: VTUU 260500Z 28007KT 240V320 9999 SCT030 32/25 Q1008 NOSIG

Heure: 12:42 (05:42 UTC)

Prévision

Le bulletin a été fait il y a 6 heures et 42 minutes, à 23:00 UTC
Prévision valable du 26 à 00 UTC au 26 à 24 UTC
Vent 5 kt de sud-ouest
Visibilité 10 km ou plus
Quelques nuages à une hauteur de 3000 ft

TAF: VTUU 252300Z 2600/2624 22005KT 9999 FEW030

Observations et prévisions météorologiques de plus de 4000 aéroports (messages METAR et TAF).

Les stations disponibles sont représentées par des disques jaunes et rouges sur la carte.

Passer la souris dessus pour voir le nom de la station.

Cliquer dessus pour voir les observations et prévisions météorologiques.

Pour changer de carte: cliquez sur les boutons verts avec une croix noire pour zoomer, sur le bouton vert avec un tiret pour effectuer un zoom arrière, ou sur les flèches vertes pour les cartes adjacentes.


METAR-TAF: